createdAt,value
2022-12-26T00:00:59.284Z,3.91
2022-12-26T00:02:10.600Z,3.91
2022-12-26T00:03:12.500Z,3.90
2022-12-26T00:04:51.680Z,3.90
2022-12-26T00:05:38.896Z,3.90
2022-12-26T00:06:41.296Z,3.90
2022-12-26T00:07:43.073Z,3.91
2022-12-26T00:08:45.363Z,3.92
2022-12-26T00:09:47.219Z,3.93
2022-12-26T00:10:49.138Z,3.93
2022-12-26T00:11:51.055Z,3.94
2022-12-26T00:12:52.952Z,3.94
2022-12-26T00:14:00.259Z,3.94
2022-12-26T00:15:02.329Z,3.93
2022-12-26T00:16:16.061Z,3.92
2022-12-26T00:17:17.929Z,3.91
2022-12-26T00:18:20.064Z,3.91
2022-12-26T00:19:21.977Z,3.92
2022-12-26T00:20:23.894Z,3.93
2022-12-26T00:21:27.518Z,3.93
2022-12-26T00:22:29.281Z,3.93
2022-12-26T00:23:33.470Z,3.93
2022-12-26T00:24:35.240Z,3.92
2022-12-26T00:25:37.027Z,3.93
2022-12-26T00:26:39.202Z,3.93
2022-12-26T00:27:41.009Z,3.94
2022-12-26T00:28:44.774Z,3.94
2022-12-26T00:29:48.071Z,3.94
2022-12-26T00:30:50.413Z,3.93
2022-12-26T00:31:52.336Z,3.93
2022-12-26T00:32:54.321Z,3.92
2022-12-26T00:33:56.571Z,3.90
2022-12-26T00:34:58.395Z,3.89
2022-12-26T00:36:07.724Z,3.89
2022-12-26T00:37:09.735Z,3.89
2022-12-26T00:38:11.700Z,3.89
2022-12-26T00:39:13.544Z,3.89
2022-12-26T00:40:15.582Z,3.88
2022-12-26T00:41:20.605Z,3.88
2022-12-26T00:42:22.701Z,3.88
2022-12-26T00:43:24.586Z,3.88
2022-12-26T00:44:26.754Z,3.88
2022-12-26T00:45:28.778Z,3.87
2022-12-26T00:46:30.852Z,3.86
2022-12-26T00:47:33.325Z,3.86
2022-12-26T00:48:35.404Z,3.87
2022-12-26T00:50:11.785Z,3.88
2022-12-26T00:50:59.958Z,3.89
2022-12-26T00:52:01.869Z,3.89
2022-12-26T00:53:03.718Z,3.90
2022-12-26T00:54:05.540Z,3.90
2022-12-26T00:55:08.140Z,3.91
2022-12-26T00:56:10.400Z,3.92
2022-12-26T00:57:12.343Z,3.92
2022-12-26T00:58:14.161Z,3.93
2022-12-26T00:59:16.146Z,3.94
2022-12-26T01:00:18.604Z,3.94
2022-12-26T01:01:23.261Z,3.93
2022-12-26T01:02:41.010Z,3.92
2022-12-26T01:03:45.141Z,3.92
2022-12-26T01:04:47.100Z,3.92
2022-12-26T01:05:51.928Z,3.92
2022-12-26T01:06:53.863Z,3.92
2022-12-26T01:08:21.059Z,3.93
2022-12-26T01:09:18.084Z,3.94
2022-12-26T01:10:20.262Z,3.94
2022-12-26T01:11:41.004Z,3.96
2022-12-26T01:12:43.252Z,3.97
2022-12-26T01:13:45.101Z,3.99
2022-12-26T01:14:47.231Z,3.98
2022-12-26T01:15:50.946Z,3.98
2022-12-26T01:16:52.721Z,3.97
2022-12-26T01:17:54.560Z,3.97
2022-12-26T01:18:56.355Z,3.97
2022-12-26T01:19:58.813Z,3.99
2022-12-26T01:21:08.079Z,3.99
2022-12-26T01:22:09.868Z,4.00
2022-12-26T01:23:13.082Z,4.00
2022-12-26T01:24:14.950Z,4.01
2022-12-26T01:25:16.892Z,4.00
2022-12-26T01:26:20.204Z,4.00
2022-12-26T01:27:23.274Z,4.00
2022-12-26T01:28:25.224Z,4.00
2022-12-26T01:29:27.051Z,4.01
2022-12-26T01:30:28.915Z,4.02
2022-12-26T01:31:30.912Z,4.02
2022-12-26T01:32:32.998Z,4.01
2022-12-26T01:33:34.894Z,4.02
2022-12-26T01:34:36.846Z,4.02
2022-12-26T01:35:38.828Z,4.02
2022-12-26T01:36:40.747Z,4.03
2022-12-26T01:37:43.013Z,4.04
2022-12-26T01:38:45.648Z,4.05
2022-12-26T01:39:47.593Z,4.06
2022-12-26T01:41:10.209Z,4.07
2022-12-26T01:42:18.211Z,4.08
2022-12-26T01:43:20.294Z,4.08
2022-12-26T01:44:59.814Z,4.08
2022-12-26T01:46:01.745Z,4.09
2022-12-26T01:47:03.691Z,4.10
2022-12-26T01:48:34.662Z,4.10
2022-12-26T01:49:43.450Z,4.10
2022-12-26T01:50:55.943Z,4.10
2022-12-26T01:52:03.615Z,4.10
2022-12-26T01:53:34.089Z,4.10
2022-12-26T01:54:42.610Z,4.11
2022-12-26T01:55:52.707Z,4.11
2022-12-26T01:56:54.758Z,4.12
2022-12-26T01:58:07.220Z,4.13
2022-12-26T01:59:18.464Z,4.15
2022-12-26T02:00:20.627Z,4.15
2022-12-26T02:01:29.295Z,4.15
2022-12-26T02:02:52.128Z,4.14
2022-12-26T02:04:13.223Z,4.15
2022-12-26T02:05:33.932Z,4.15
2022-12-26T02:06:37.612Z,4.14
2022-12-26T02:07:44.506Z,4.13
2022-12-26T02:08:46.788Z,4.13
2022-12-26T02:09:48.852Z,4.13
2022-12-26T02:11:14.653Z,4.14
2022-12-26T02:12:34.720Z,4.13
2022-12-26T02:13:41.203Z,4.12
2022-12-26T02:14:43.920Z,4.12
2022-12-26T02:15:46.962Z,4.12
2022-12-26T02:16:49.041Z,4.11
2022-12-26T02:17:51.200Z,4.12
2022-12-26T02:18:53.006Z,4.12
2022-12-26T02:20:17.460Z,4.13
2022-12-26T02:21:38.057Z,4.13
2022-12-26T02:22:58.819Z,4.14
2022-12-26T02:24:31.447Z,4.12
2022-12-26T02:25:59.028Z,4.12
2022-12-26T02:27:10.356Z,4.11
2022-12-26T02:28:41.454Z,4.10
2022-12-26T02:30:05.560Z,4.10
2022-12-26T02:31:32.145Z,4.10
2022-12-26T02:32:49.552Z,4.09
2022-12-26T02:34:13.076Z,4.09
2022-12-26T02:35:31.463Z,4.08
2022-12-26T02:36:52.256Z,4.07
2022-12-26T02:38:24.124Z,4.07
2022-12-26T02:39:55.260Z,4.07
2022-12-26T02:41:42.025Z,4.08
2022-12-26T02:43:03.444Z,4.07
2022-12-26T02:44:45.912Z,4.08
2022-12-26T02:46:29.617Z,4.07
2022-12-26T02:47:53.571Z,4.08
2022-12-26T02:49:17.076Z,4.09
2022-12-26T02:50:56.251Z,4.10
2022-12-26T02:52:35.816Z,4.11
2022-12-26T02:54:37.779Z,4.11
2022-12-26T02:56:05.849Z,4.10
2022-12-26T02:57:38.542Z,4.09
2022-12-26T02:59:19.922Z,4.09
2022-12-26T03:01:07.304Z,4.07
2022-12-26T03:02:55.463Z,4.06
2022-12-26T03:04:27.826Z,4.04
2022-12-26T03:05:59.669Z,4.02
2022-12-26T03:07:30.679Z,4.02
2022-12-26T03:09:02.453Z,4.03
2022-12-26T03:10:34.983Z,4.03
2022-12-26T03:12:00.563Z,4.03
2022-12-26T03:13:10.930Z,4.04
2022-12-26T03:14:26.351Z,4.04
2022-12-26T03:15:57.465Z,4.04
2022-12-26T03:17:20.090Z,4.02
2022-12-26T03:18:58.009Z,4.02
2022-12-26T03:19:59.584Z,4.01
2022-12-26T03:21:03.337Z,4.01
2022-12-26T03:22:28.665Z,4.01
2022-12-26T03:23:32.205Z,4.01
2022-12-26T03:24:55.151Z,4.01
2022-12-26T03:26:26.492Z,4.01
2022-12-26T03:27:28.943Z,4.01
2022-12-26T03:28:31.543Z,4.01
2022-12-26T03:29:52.293Z,4.01
2022-12-26T03:30:58.155Z,4.00
2022-12-26T03:32:02.914Z,4.00
2022-12-26T03:33:05.353Z,4.00
2022-12-26T03:34:19.949Z,4.00
2022-12-26T03:35:21.978Z,4.00
2022-12-26T03:36:51.916Z,4.00
2022-12-26T03:38:05.091Z,4.01
2022-12-26T03:39:19.643Z,4.02
2022-12-26T03:40:53.168Z,4.02
2022-12-26T03:42:13.649Z,4.02
2022-12-26T03:43:59.455Z,4.03
2022-12-26T03:45:50.757Z,4.04
2022-12-26T03:47:26.920Z,4.07
2022-12-26T03:49:13.103Z,4.09
2022-12-26T03:50:57.050Z,4.11
2022-12-26T03:52:42.510Z,4.10
2022-12-26T03:54:35.557Z,4.08
2022-12-26T03:56:17.156Z,4.05
2022-12-26T03:57:43.504Z,4.03
2022-12-26T03:59:17.959Z,4.03
2022-12-26T04:00:38.898Z,4.01
2022-12-26T04:02:05.977Z,4.00
2022-12-26T04:03:32.822Z,4.00
2022-12-26T04:05:01.906Z,4.01
2022-12-26T04:07:11.798Z,4.02
2022-12-26T04:08:46.198Z,4.03
2022-12-26T04:10:17.787Z,4.02
2022-12-26T04:11:42.307Z,4.01
2022-12-26T04:13:09.325Z,4.01
2022-12-26T04:14:40.590Z,4.01
2022-12-26T04:16:15.139Z,4.01
2022-12-26T04:17:54.731Z,4.00
2022-12-26T04:19:24.905Z,4.01
2022-12-26T04:21:06.963Z,4.02
2022-12-26T04:22:42.170Z,4.03
2022-12-26T04:24:08.391Z,4.03
2022-12-26T04:26:06.865Z,4.04
2022-12-26T04:27:33.676Z,4.05
2022-12-26T04:28:54.960Z,4.07
2022-12-26T04:30:15.715Z,4.07
2022-12-26T04:31:47.456Z,4.06
2022-12-26T04:33:11.753Z,4.07
2022-12-26T04:34:47.291Z,4.08
2022-12-26T04:36:15.716Z,4.08
2022-12-26T04:37:44.881Z,4.09
2022-12-26T04:39:15.821Z,4.08
2022-12-26T04:40:48.584Z,4.08
2022-12-26T04:42:13.271Z,4.08
2022-12-26T04:43:47.324Z,4.08
2022-12-26T04:44:56.300Z,4.09
2022-12-26T04:45:58.588Z,4.09
2022-12-26T04:47:00.506Z,4.09
2022-12-26T04:48:21.524Z,4.10
2022-12-26T04:49:42.157Z,4.11
2022-12-26T04:50:53.825Z,4.11
2022-12-26T04:51:58.684Z,4.11
2022-12-26T04:53:01.161Z,4.11
2022-12-26T04:54:03.859Z,4.13
2022-12-26T04:55:06.687Z,4.13
2022-12-26T04:56:11.278Z,4.14
2022-12-26T04:57:13.495Z,4.15
2022-12-26T04:58:17.968Z,4.16
2022-12-26T04:59:21.943Z,4.15
2022-12-26T05:00:27.956Z,4.15
2022-12-26T05:01:48.617Z,4.16
2022-12-26T05:03:18.294Z,4.15
2022-12-26T05:04:40.664Z,4.17
2022-12-26T05:06:05.033Z,4.16
2022-12-26T05:07:36.779Z,4.20
2022-12-26T05:09:01.133Z,4.21
2022-12-26T05:10:05.567Z,4.23
2022-12-26T05:11:07.578Z,4.23
2022-12-26T05:12:10.263Z,4.23
2022-12-26T05:13:12.175Z,4.22
2022-12-26T05:14:14.127Z,4.21
2022-12-26T05:15:16.701Z,4.21
2022-12-26T05:16:37.997Z,4.21
2022-12-26T05:17:58.897Z,4.20
2022-12-26T05:19:19.572Z,4.21
2022-12-26T05:20:40.165Z,4.21
2022-12-26T05:22:01.081Z,4.21
2022-12-26T05:23:23.615Z,4.20
2022-12-26T05:24:52.121Z,4.20
2022-12-26T05:26:13.317Z,4.18
2022-12-26T05:27:35.609Z,4.18
2022-12-26T05:28:43.658Z,4.17
2022-12-26T05:29:45.610Z,4.16
2022-12-26T05:30:47.670Z,4.15
2022-12-26T05:31:49.585Z,4.16
2022-12-26T05:33:10.345Z,4.16
2022-12-26T05:34:15.918Z,4.17
2022-12-26T05:35:18.507Z,4.18
2022-12-26T05:36:27.760Z,4.16
2022-12-26T05:37:29.603Z,4.17
2022-12-26T05:38:31.585Z,4.17
2022-12-26T05:39:34.043Z,4.17
2022-12-26T05:40:36.465Z,4.18
2022-12-26T05:41:40.567Z,4.18
2022-12-26T05:42:42.593Z,4.18
2022-12-26T05:43:44.537Z,4.18
2022-12-26T05:44:48.236Z,4.17
2022-12-26T05:45:50.604Z,4.16
2022-12-26T05:46:52.938Z,4.17
2022-12-26T05:48:02.499Z,4.15
2022-12-26T05:49:05.747Z,4.17
2022-12-26T05:50:09.520Z,4.18
2022-12-26T05:51:12.546Z,4.18
2022-12-26T05:52:14.442Z,4.19
2022-12-26T05:53:16.689Z,4.20
2022-12-26T05:54:19.040Z,4.20
2022-12-26T05:55:24.041Z,4.21
2022-12-26T05:56:25.964Z,4.23
2022-12-26T05:57:27.848Z,4.24
2022-12-26T05:58:30.084Z,4.25
2022-12-26T05:59:32.130Z,4.26
2022-12-26T06:00:34.462Z,4.26
2022-12-26T06:01:36.600Z,4.27
2022-12-26T06:02:39.169Z,4.28
2022-12-26T06:03:47.339Z,4.29
2022-12-26T06:04:49.640Z,4.30
2022-12-26T06:05:51.804Z,4.31
2022-12-26T06:06:56.481Z,4.32
2022-12-26T06:07:58.444Z,4.32
2022-12-26T06:09:00.555Z,4.32
2022-12-26T06:10:02.632Z,4.33
2022-12-26T06:11:06.796Z,4.33
2022-12-26T06:12:08.771Z,4.34
2022-12-26T06:13:10.697Z,4.35
2022-12-26T06:14:12.794Z,4.36
2022-12-26T06:15:15.494Z,4.37
2022-12-26T06:16:19.348Z,4.38
2022-12-26T06:17:21.429Z,4.38
2022-12-26T06:18:23.327Z,4.39
2022-12-26T06:19:25.240Z,4.41
2022-12-26T06:20:27.107Z,4.42
2022-12-26T06:21:29.115Z,4.43
2022-12-26T06:22:31.973Z,4.45
2022-12-26T06:23:35.721Z,4.46
2022-12-26T06:24:37.754Z,4.47
2022-12-26T06:25:39.696Z,4.48
2022-12-26T06:26:42.435Z,4.48
2022-12-26T06:27:44.453Z,4.48
2022-12-26T06:28:47.756Z,4.50
2022-12-26T06:29:50.079Z,4.52
2022-12-26T06:30:53.036Z,4.54
2022-12-26T06:31:55.159Z,4.54
2022-12-26T06:32:57.345Z,4.54
2022-12-26T06:34:01.507Z,4.54
2022-12-26T06:35:03.515Z,4.53
2022-12-26T06:36:09.108Z,4.54
2022-12-26T06:37:11.228Z,4.54
2022-12-26T06:38:13.423Z,4.55
2022-12-26T06:39:15.375Z,4.56
2022-12-26T06:40:17.512Z,4.55
2022-12-26T06:41:22.456Z,4.55
2022-12-26T06:42:25.127Z,4.55
2022-12-26T06:43:27.167Z,4.55
2022-12-26T06:44:28.975Z,4.56
2022-12-26T06:45:30.875Z,4.56
2022-12-26T06:46:33.435Z,4.58
2022-12-26T06:47:35.803Z,4.58
2022-12-26T06:48:42.047Z,4.57
2022-12-26T06:49:44.575Z,4.56
2022-12-26T06:50:46.452Z,4.56
2022-12-26T06:51:48.787Z,4.56
2022-12-26T06:52:50.845Z,4.56
2022-12-26T06:53:54.003Z,4.55
2022-12-26T06:54:56.331Z,4.56
2022-12-26T06:56:06.747Z,4.56
2022-12-26T06:57:08.691Z,4.56
2022-12-26T06:58:11.102Z,4.57
2022-12-26T06:59:13.031Z,4.58
2022-12-26T07:00:15.769Z,4.59
2022-12-26T07:01:19.677Z,4.61
2022-12-26T07:02:22.223Z,4.63
2022-12-26T07:03:26.228Z,4.66
2022-12-26T07:04:28.375Z,4.69
2022-12-26T07:05:30.452Z,4.70
2022-12-26T07:06:35.346Z,4.72
2022-12-26T07:07:37.328Z,4.75
2022-12-26T07:08:39.563Z,4.77
2022-12-26T07:09:41.498Z,4.78
2022-12-26T07:10:43.288Z,4.80
2022-12-26T07:11:48.298Z,4.82
2022-12-26T07:12:50.375Z,4.83
2022-12-26T07:13:54.528Z,4.86
2022-12-26T07:15:01.371Z,4.87
2022-12-26T07:16:04.354Z,4.90
2022-12-26T07:17:06.837Z,4.92
2022-12-26T07:18:08.665Z,4.96
2022-12-26T07:19:13.119Z,4.98
2022-12-26T07:20:15.042Z,5.01
2022-12-26T07:21:17.575Z,5.03
2022-12-26T07:22:19.852Z,5.06
2022-12-26T07:23:22.022Z,5.09
2022-12-26T07:24:24.131Z,5.12
2022-12-26T07:25:26.086Z,5.15
2022-12-26T07:26:28.034Z,5.18
2022-12-26T07:27:29.905Z,5.22
2022-12-26T07:28:32.004Z,5.26
2022-12-26T07:29:34.479Z,5.29
2022-12-26T07:30:36.384Z,5.34
2022-12-26T07:31:39.093Z,5.38
2022-12-26T07:32:41.075Z,5.41
2022-12-26T07:33:43.090Z,5.46
2022-12-26T07:34:45.305Z,5.50
2022-12-26T07:35:47.249Z,5.53
2022-12-26T07:36:49.590Z,5.57
2022-12-26T07:37:52.298Z,5.61
2022-12-26T07:38:54.539Z,5.65
2022-12-26T07:39:59.264Z,5.68
2022-12-26T07:41:24.827Z,5.72
2022-12-26T07:42:26.809Z,5.77
2022-12-26T07:43:28.586Z,5.80
2022-12-26T07:44:32.773Z,5.84
2022-12-26T07:45:36.099Z,5.88
2022-12-26T07:46:40.129Z,5.91
2022-12-26T07:47:42.050Z,5.95
2022-12-26T07:48:44.374Z,5.97
2022-12-26T07:49:46.661Z,6.00
2022-12-26T07:50:50.113Z,6.03
2022-12-26T07:51:52.415Z,6.06
2022-12-26T07:52:55.392Z,6.09
2022-12-26T07:53:57.544Z,6.14
2022-12-26T07:54:59.404Z,6.17
2022-12-26T07:56:02.214Z,6.21
2022-12-26T07:57:38.224Z,6.26
2022-12-26T07:58:26.797Z,6.33
2022-12-26T07:59:28.686Z,6.38
2022-12-26T08:00:30.600Z,6.41
2022-12-26T08:01:32.591Z,6.45
2022-12-26T08:02:35.077Z,6.48
2022-12-26T08:03:37.276Z,6.51
2022-12-26T08:04:39.336Z,6.54
2022-12-26T08:05:45.323Z,6.57
2022-12-26T08:06:47.688Z,6.60
2022-12-26T08:07:51.074Z,6.62
2022-12-26T08:08:53.054Z,6.65
2022-12-26T08:09:54.921Z,6.67
2022-12-26T08:11:01.970Z,6.70
2022-12-26T08:12:04.253Z,6.73
2022-12-26T08:13:06.364Z,6.76
2022-12-26T08:14:12.127Z,6.78
2022-12-26T08:15:13.901Z,6.81
2022-12-26T08:16:16.135Z,6.84
2022-12-26T08:17:18.717Z,6.87
2022-12-26T08:18:21.099Z,6.90
2022-12-26T08:19:22.968Z,6.94
2022-12-26T08:20:25.152Z,6.96
2022-12-26T08:21:27.052Z,6.99
2022-12-26T08:22:28.909Z,7.01
2022-12-26T08:23:31.838Z,7.03
2022-12-26T08:24:34.139Z,7.05
2022-12-26T08:25:36.109Z,7.07
2022-12-26T08:26:38.042Z,7.09
2022-12-26T08:27:40.062Z,7.09
2022-12-26T08:28:42.285Z,7.11
2022-12-26T08:29:44.151Z,7.14
2022-12-26T08:30:46.909Z,7.15
2022-12-26T08:31:48.753Z,7.15
2022-12-26T08:32:52.054Z,7.17
2022-12-26T08:33:57.200Z,7.18
2022-12-26T08:34:59.101Z,7.20
2022-12-26T08:36:05.902Z,7.22
2022-12-26T08:37:07.706Z,7.23
2022-12-26T08:38:09.656Z,7.24
2022-12-26T08:39:11.569Z,7.24
2022-12-26T08:40:15.565Z,7.25
2022-12-26T08:41:21.441Z,7.26
2022-12-26T08:42:23.467Z,7.27
2022-12-26T08:44:48.784Z,7.31
2022-12-26T08:46:03.810Z,7.32
2022-12-26T08:47:05.860Z,7.34
2022-12-26T08:48:07.667Z,7.35
2022-12-26T08:49:09.696Z,7.37
2022-12-26T08:50:11.805Z,7.38
2022-12-26T08:51:23.160Z,7.39
2022-12-26T08:52:25.210Z,7.41
2022-12-26T08:53:29.326Z,7.41
2022-12-26T08:54:31.555Z,7.42
2022-12-26T08:55:33.513Z,7.43
2022-12-26T08:56:37.115Z,7.43
2022-12-26T08:57:39.156Z,7.44
2022-12-26T08:58:42.137Z,7.44
2022-12-26T08:59:44.047Z,7.44
2022-12-26T09:00:48.164Z,7.43
2022-12-26T09:01:54.532Z,7.43
2022-12-26T09:02:56.584Z,7.45
2022-12-26T09:04:02.204Z,7.47
2022-12-26T09:05:04.836Z,7.48
2022-12-26T09:06:07.187Z,7.50
2022-12-26T09:07:09.685Z,7.51
2022-12-26T09:08:12.291Z,7.51
2022-12-26T09:09:14.492Z,7.52
2022-12-26T09:10:16.662Z,7.53
2022-12-26T09:11:23.212Z,7.53
2022-12-26T09:12:25.876Z,7.54
2022-12-26T09:13:27.972Z,7.54
2022-12-26T09:14:30.903Z,7.55
2022-12-26T09:15:32.901Z,7.56
2022-12-26T09:16:49.354Z,7.55
2022-12-26T09:17:53.068Z,7.55
2022-12-26T09:18:58.028Z,7.55
2022-12-26T09:19:59.848Z,7.54
2022-12-26T09:21:06.176Z,7.54
2022-12-26T09:22:31.954Z,7.56
2022-12-26T09:23:37.382Z,7.57
2022-12-26T09:24:39.389Z,7.57
2022-12-26T09:25:41.448Z,7.58
2022-12-26T09:26:44.577Z,7.59
2022-12-26T09:27:47.026Z,7.59
2022-12-26T09:28:48.964Z,7.59
2022-12-26T09:29:51.284Z,7.60
2022-12-26T09:30:53.321Z,7.60
2022-12-26T09:31:55.880Z,7.61
2022-12-26T09:32:58.102Z,7.62
2022-12-26T09:34:03.463Z,7.62
2022-12-26T09:35:07.019Z,7.62
2022-12-26T09:36:14.877Z,7.63
2022-12-26T09:37:17.154Z,7.64
2022-12-26T09:38:20.577Z,7.66
2022-12-26T09:39:22.549Z,7.67
2022-12-26T09:40:33.432Z,7.67
2022-12-26T09:42:01.514Z,7.68
2022-12-26T09:43:17.424Z,7.68
2022-12-26T09:44:47.406Z,7.70
2022-12-26T09:46:07.415Z,7.73
2022-12-26T09:47:31.826Z,7.78
2022-12-26T09:48:51.948Z,7.81
2022-12-26T09:50:03.885Z,7.85
2022-12-26T09:51:05.969Z,7.88
2022-12-26T09:52:18.026Z,7.90
2022-12-26T09:53:30.444Z,7.93
2022-12-26T09:54:51.132Z,7.95
2022-12-26T09:56:05.832Z,7.99
2022-12-26T09:57:18.496Z,8.02
2022-12-26T09:58:56.483Z,8.06
2022-12-26T10:00:05.622Z,8.09
2022-12-26T10:01:28.955Z,8.12
2022-12-26T10:02:31.582Z,8.13
2022-12-26T10:03:45.163Z,8.11
2022-12-26T10:04:48.167Z,8.13
2022-12-26T10:05:53.155Z,8.12
2022-12-26T10:07:14.842Z,8.12
2022-12-26T10:08:52.276Z,8.11
2022-12-26T10:10:09.435Z,8.11
2022-12-26T10:11:53.499Z,8.12
2022-12-26T10:13:29.082Z,8.12
2022-12-26T10:14:59.797Z,8.13
2022-12-26T10:16:23.444Z,8.14
2022-12-26T10:17:48.613Z,8.15
2022-12-26T10:19:10.013Z,8.15
2022-12-26T10:20:32.815Z,8.17
2022-12-26T10:22:17.771Z,8.20
2022-12-26T10:23:23.017Z,8.24
2022-12-26T10:24:32.769Z,8.27
2022-12-26T10:25:42.335Z,8.29
2022-12-26T10:26:50.075Z,8.30
2022-12-26T10:27:53.071Z,8.30
2022-12-26T10:29:05.862Z,8.31
2022-12-26T10:30:21.169Z,8.34
2022-12-26T10:31:36.041Z,8.38
2022-12-26T10:32:45.526Z,8.42
2022-12-26T10:33:56.190Z,8.47
2022-12-26T10:35:00.289Z,8.51
2022-12-26T10:36:03.006Z,8.53
2022-12-26T10:37:23.935Z,8.55
2022-12-26T10:38:42.992Z,8.56
2022-12-26T10:40:09.541Z,8.58
2022-12-26T10:41:24.612Z,8.63
2022-12-26T10:42:45.253Z,8.64
2022-12-26T10:43:47.574Z,8.67
2022-12-26T10:44:49.379Z,8.68
2022-12-26T10:46:13.640Z,8.70
2022-12-26T10:47:39.544Z,8.75
2022-12-26T10:48:41.503Z,8.75
2022-12-26T10:49:46.557Z,8.75
2022-12-26T10:50:49.690Z,8.73
2022-12-26T10:51:55.472Z,8.72
2022-12-26T10:53:00.000Z,8.71
2022-12-26T10:54:02.931Z,8.69
2022-12-26T10:55:27.955Z,8.67
2022-12-26T10:56:28.283Z,8.66
2022-12-26T10:57:36.297Z,8.67
2022-12-26T10:58:40.274Z,8.69
2022-12-26T10:59:45.100Z,8.71
2022-12-26T11:00:47.726Z,8.75
2022-12-26T11:01:50.503Z,8.84
2022-12-26T11:03:06.453Z,8.92
2022-12-26T11:04:37.678Z,8.98
2022-12-26T11:06:08.956Z,9.01
2022-12-26T11:07:17.211Z,9.03
2022-12-26T11:08:25.431Z,9.04
2022-12-26T11:09:40.803Z,9.05
2022-12-26T11:11:02.015Z,9.05
2022-12-26T11:12:05.647Z,9.03
2022-12-26T11:13:20.557Z,9.02
2022-12-26T11:14:37.931Z,9.02
2022-12-26T11:15:48.191Z,9.02
2022-12-26T11:16:50.374Z,9.03
2022-12-26T11:17:54.256Z,9.02
2022-12-26T11:18:57.463Z,9.04
2022-12-26T11:20:18.613Z,9.06
2022-12-26T11:21:25.578Z,9.14
2022-12-26T11:22:29.992Z,9.24
2022-12-26T11:23:32.789Z,9.33
2022-12-26T11:24:35.008Z,9.39
2022-12-26T11:25:51.876Z,9.50
2022-12-26T11:27:18.487Z,9.59
2022-12-26T11:28:37.827Z,9.63
2022-12-26T11:29:42.775Z,9.63
2022-12-26T11:30:48.673Z,9.63
2022-12-26T11:31:56.539Z,9.61
2022-12-26T11:33:30.584Z,9.58
2022-12-26T11:34:46.259Z,9.54
2022-12-26T11:36:23.451Z,9.52
2022-12-26T11:37:31.579Z,9.51
2022-12-26T11:38:58.136Z,9.51
2022-12-26T11:40:01.643Z,9.56
2022-12-26T11:41:33.543Z,9.60
2022-12-26T11:42:35.707Z,9.69
2022-12-26T11:43:37.911Z,9.78
2022-12-26T11:44:46.349Z,10.01
2022-12-26T11:45:50.625Z,10.28
2022-12-26T11:46:59.265Z,10.48
2022-12-26T11:48:01.620Z,10.72
2022-12-26T11:49:04.561Z,10.93
2022-12-26T11:50:21.663Z,10.99
2022-12-26T11:51:46.203Z,10.97
2022-12-26T11:52:57.658Z,10.87
2022-12-26T11:54:19.930Z,10.76
2022-12-26T11:55:38.890Z,10.77
2022-12-26T11:56:41.379Z,10.83
2022-12-26T11:57:43.124Z,10.97
2022-12-26T11:58:45.033Z,11.14
2022-12-26T11:59:48.753Z,11.26
2022-12-26T12:00:50.525Z,11.38
2022-12-26T12:02:15.876Z,11.53
2022-12-26T12:03:31.128Z,11.69
2022-12-26T12:04:33.298Z,11.84
2022-12-26T12:06:03.861Z,11.90
2022-12-26T12:07:35.922Z,12.01
2022-12-26T12:09:14.660Z,12.14
2022-12-26T12:10:38.371Z,12.23
2022-12-26T12:12:13.066Z,12.31
2022-12-26T12:13:38.271Z,12.41
2022-12-26T12:15:22.401Z,12.48
2022-12-26T12:16:52.422Z,12.55
2022-12-26T12:18:36.651Z,12.68
2022-12-26T12:19:53.589Z,12.66
2022-12-26T12:21:04.621Z,12.65
2022-12-26T12:22:22.945Z,12.69
2022-12-26T12:23:54.030Z,12.62
2022-12-26T12:25:16.393Z,12.55
2022-12-26T12:26:40.645Z,12.36
2022-12-26T12:27:49.264Z,12.14
2022-12-26T12:29:06.483Z,12.04
2022-12-26T12:30:50.762Z,11.94
2022-12-26T12:31:59.018Z,11.80
2022-12-26T12:33:04.276Z,11.68
2022-12-26T12:34:43.979Z,11.62
2022-12-26T12:36:16.666Z,11.54
2022-12-26T12:37:39.810Z,11.40
2022-12-26T12:38:56.575Z,11.25
2022-12-26T12:40:02.114Z,11.13
2022-12-26T12:41:28.712Z,11.06
2022-12-26T12:43:08.601Z,11.02
2022-12-26T12:44:19.652Z,11.06
2022-12-26T12:45:32.550Z,11.20
2022-12-26T12:46:43.929Z,11.27
2022-12-26T12:48:09.468Z,11.30
2022-12-26T12:49:30.410Z,11.28
2022-12-26T12:50:59.894Z,11.20
2022-12-26T12:52:43.714Z,11.06
2022-12-26T12:54:16.804Z,10.90
2022-12-26T12:55:30.933Z,10.76
2022-12-26T12:56:42.024Z,10.65
2022-12-26T12:58:06.105Z,10.54
2022-12-26T12:59:27.035Z,10.44
2022-12-26T13:00:42.503Z,10.34
2022-12-26T13:01:51.007Z,10.26
2022-12-26T13:03:04.543Z,10.20
2022-12-26T13:04:18.599Z,10.15
2022-12-26T13:05:28.472Z,10.08
2022-12-26T13:06:43.824Z,10.05
2022-12-26T13:07:53.362Z,10.02
2022-12-26T13:09:12.279Z,9.99
2022-12-26T13:10:25.311Z,9.95
2022-12-26T13:11:51.388Z,9.91
2022-12-26T13:12:57.245Z,9.87
2022-12-26T13:14:11.434Z,9.85
2022-12-26T13:15:18.989Z,9.82
2022-12-26T13:16:28.752Z,9.80
2022-12-26T13:17:45.504Z,9.79
2022-12-26T13:18:57.029Z,9.77
2022-12-26T13:20:38.230Z,9.78
2022-12-26T13:21:42.301Z,9.77
2022-12-26T13:23:08.386Z,9.75
2022-12-26T13:24:39.266Z,9.72
2022-12-26T13:26:16.671Z,9.70
2022-12-26T13:27:25.817Z,9.66
2022-12-26T13:28:34.278Z,9.64
2022-12-26T13:29:41.046Z,9.60
2022-12-26T13:30:43.524Z,9.58
2022-12-26T13:31:46.928Z,9.55
2022-12-26T13:32:49.103Z,9.53
2022-12-26T13:33:51.223Z,9.50
2022-12-26T13:34:56.534Z,9.48
2022-12-26T13:36:02.058Z,9.45
2022-12-26T13:37:03.852Z,9.43
2022-12-26T13:38:05.735Z,9.41
2022-12-26T13:39:16.719Z,9.40
2022-12-26T13:40:27.368Z,9.38
2022-12-26T13:41:50.486Z,9.36
2022-12-26T13:43:37.808Z,9.34
2022-12-26T13:44:40.484Z,9.29
2022-12-26T13:45:42.288Z,9.26
2022-12-26T13:46:47.125Z,9.23
2022-12-26T13:47:49.033Z,9.20
2022-12-26T13:48:57.946Z,9.17
2022-12-26T13:50:38.982Z,9.15
2022-12-26T13:51:43.519Z,9.11
2022-12-26T13:52:47.610Z,9.09
2022-12-26T13:54:03.044Z,9.08
2022-12-26T13:55:04.948Z,9.06
2022-12-26T13:56:18.784Z,9.05
2022-12-26T13:57:41.138Z,9.04
2022-12-26T13:59:10.718Z,9.03
2022-12-26T14:00:18.026Z,9.03
2022-12-26T14:01:45.565Z,9.03
2022-12-26T14:03:16.548Z,9.04
2022-12-26T14:04:34.744Z,9.06
2022-12-26T14:05:54.952Z,9.06
2022-12-26T14:07:20.111Z,9.06
2022-12-26T14:08:34.505Z,9.05
2022-12-26T14:10:02.127Z,9.05
2022-12-26T14:11:17.230Z,9.06
2022-12-26T14:12:26.855Z,9.06
2022-12-26T14:13:34.476Z,9.07
2022-12-26T14:15:14.232Z,9.08
2022-12-26T14:16:23.983Z,9.09
2022-12-26T14:17:52.042Z,9.10
2022-12-26T14:19:03.581Z,9.07
2022-12-26T14:20:56.999Z,9.07
2022-12-26T14:22:13.588Z,9.07
2022-12-26T14:23:37.872Z,9.08
2022-12-26T14:25:06.525Z,9.07
2022-12-26T14:26:53.955Z,9.07
2022-12-26T14:28:11.369Z,9.08
2022-12-26T14:29:28.399Z,9.08
2022-12-26T14:30:49.351Z,9.07
2022-12-26T14:32:24.128Z,9.08
2022-12-26T14:33:51.783Z,9.11
2022-12-26T14:35:28.760Z,9.12
2022-12-26T14:36:51.252Z,9.09
2022-12-26T14:38:05.735Z,9.05
2022-12-26T14:39:43.436Z,9.01
2022-12-26T14:41:05.501Z,8.96
2022-12-26T14:42:26.632Z,8.93
2022-12-26T14:43:37.913Z,8.91
2022-12-26T14:44:39.683Z,8.88
2022-12-26T14:45:54.367Z,8.86
2022-12-26T14:47:01.028Z,8.85
2022-12-26T14:48:15.302Z,8.85
2022-12-26T14:49:23.613Z,8.84
2022-12-26T14:50:44.068Z,8.84
2022-12-26T14:51:46.665Z,8.85
2022-12-26T14:52:49.922Z,8.85
2022-12-26T14:54:22.481Z,8.85
2022-12-26T14:56:15.834Z,8.87
2022-12-26T14:57:40.165Z,8.87
2022-12-26T14:59:30.648Z,8.88
2022-12-26T15:00:33.527Z,8.88
2022-12-26T15:01:35.692Z,8.88
2022-12-26T15:02:45.149Z,8.88
2022-12-26T15:04:23.522Z,8.90
2022-12-26T15:05:32.156Z,8.92
2022-12-26T15:06:46.315Z,8.92
2022-12-26T15:08:06.718Z,8.93
2022-12-26T15:09:28.531Z,8.93
2022-12-26T15:11:19.117Z,8.93
2022-12-26T15:12:47.702Z,8.92
2022-12-26T15:14:14.602Z,8.92
2022-12-26T15:15:31.794Z,8.90
2022-12-26T15:16:33.648Z,8.89
2022-12-26T15:17:50.615Z,8.87
2022-12-26T15:19:07.881Z,8.87
2022-12-26T15:20:15.487Z,8.86
2022-12-26T15:21:45.659Z,8.86
2022-12-26T15:23:31.773Z,8.84
2022-12-26T15:26:24.484Z,8.79
2022-12-26T15:27:39.245Z,8.78
2022-12-26T15:29:29.081Z,8.78
2022-12-26T15:30:52.484Z,8.77
2022-12-26T15:32:13.015Z,8.77
2022-12-26T15:33:34.648Z,8.75
2022-12-26T15:35:01.800Z,8.75
2022-12-26T15:36:21.999Z,8.73
2022-12-26T15:37:56.617Z,8.74
2022-12-26T15:39:12.148Z,8.72
2022-12-26T15:40:24.021Z,8.71
2022-12-26T15:41:34.036Z,8.71
2022-12-26T15:42:45.360Z,8.71
2022-12-26T15:44:25.795Z,8.70
2022-12-26T15:45:46.418Z,8.68
2022-12-26T15:47:02.574Z,8.68
2022-12-26T15:48:26.557Z,8.68
2022-12-26T15:49:48.838Z,8.67
2022-12-26T15:51:02.070Z,8.67
2022-12-26T15:52:28.215Z,8.66
2022-12-26T15:53:58.535Z,8.65
2022-12-26T15:55:15.299Z,8.63
2022-12-26T15:56:45.054Z,8.62
2022-12-26T15:58:19.265Z,8.60
2022-12-26T15:59:33.395Z,8.59
2022-12-26T16:00:47.895Z,8.57
2022-12-26T16:01:53.941Z,8.57
2022-12-26T16:03:11.033Z,8.56
2022-12-26T16:04:51.940Z,8.56
2022-12-26T16:06:18.976Z,8.55
2022-12-26T16:07:46.567Z,8.55